Time;durP1;ratioP1;P1;durP2;ratioP2;P2;SDS_P1;SDS_P2;PMS_P1;PMS_P2;Temp;Humidity;BMP_temperature;BMP_pressure;BME280_temperature;BME280_humidity;BME280_pressure;Samples;Min_cycle;Max_cycle;Signal;HPM_P1;HPM_P2
2021/12/23 00:01:42;;;;;;;25.42;16.42;;;;;;;0.71;68.03;101483.00;3570486;40;20319;-63
2021/12/23 00:04:10;;;;;;;31.42;17.13;;;;;;;0.71;68.76;101484.78;3570186;40;20061;-64
2021/12/23 00:06:36;;;;;;;24.77;16.67;;;;;;;0.74;67.88;101492.69;3568550;40;20063;-64
2021/12/23 00:09:04;;;;;;;26.77;16.67;;;;;;;0.73;68.04;101475.94;3571946;40;20314;-63
2021/12/23 00:11:31;;;;;;;25.95;16.05;;;;;;;0.73;67.49;101465.34;3574914;40;20146;-63
2021/12/23 00:14:02;;;;;;;23.58;15.45;;;;;;;0.71;68.29;101464.47;3573891;40;20052;-63
2021/12/23 00:16:47;;;;;;;23.00;15.93;;;;;;;0.58;68.23;101445.22;3574439;40;20082;-63
2021/12/23 00:24:37;;;;;;;24.63;16.92;;;;;;;0.66;67.63;101450.41;3571311;40;20060;-63
2021/12/23 00:27:04;;;;;;;31.05;17.27;;;;;;;0.40;67.75;101397.81;3573732;40;20037;-63
2021/12/23 00:29:30;;;;;;;25.73;15.85;;;;;;;0.62;67.40;101433.69;3570731;40;20053;-64
2021/12/23 00:31:55;;;;;;;22.33;15.60;;;;;;;0.63;67.79;101442.50;3573643;40;20483;-63
2021/12/23 00:34:21;;;;;;;28.65;16.75;;;;;;;0.65;68.44;101424.88;3574503;40;20053;-63
2021/12/23 00:36:47;;;;;;;24.00;15.98;;;;;;;0.61;67.20;101397.56;3580461;40;20053;-64
2021/12/23 00:39:14;;;;;;;24.58;16.10;;;;;;;0.64;67.17;101401.97;3574134;40;20138;-64
2021/12/23 00:41:43;;;;;;;23.33;15.20;;;;;;;0.66;67.64;101411.59;3572483;40;20068;-64
2021/12/23 00:44:09;;;;;;;22.38;16.35;;;;;;;0.68;68.02;101408.94;3574275;40;20055;-64
2021/12/23 00:46:35;;;;;;;23.23;16.40;;;;;;;0.66;67.83;101416.91;3574506;40;20056;-64
2021/12/23 00:49:01;;;;;;;22.10;16.33;;;;;;;0.68;66.94;101414.25;3575023;40;20063;-64
2021/12/23 00:51:26;;;;;;;24.58;16.33;;;;;;;0.67;68.06;101413.38;3573342;40;20067;-63
2021/12/23 00:53:54;;;;;;;23.85;16.30;;;;;;;0.67;67.82;101402.78;3574087;40;20057;-64
2021/12/23 00:56:20;;;;;;;26.13;16.05;;;;;;;0.67;67.18;101400.16;3573532;40;20060;-64
2021/12/23 00:58:45;;;;;;;25.65;17.27;;;;;;;0.68;67.88;101401.88;3571422;40;20137;-64
2021/12/23 01:01:11;;;;;;;26.42;16.20;;;;;;;0.66;67.57;101401.03;3573672;40;20057;-63
2021/12/23 01:03:37;;;;;;;23.98;16.45;;;;;;;0.59;67.29;101394.06;3574313;40;20060;-64
2021/12/23 01:06:04;;;;;;;29.25;18.77;;;;;;;0.74;67.13;101421.25;3573936;40;20060;-64
2021/12/23 01:08:30;;;;;;;25.42;16.67;;;;;;;0.74;66.62;101429.19;3570559;40;20296;-63
2021/12/23 01:10:58;;;;;;;24.67;16.48;;;;;;;0.72;67.03;101421.25;3573869;40;20081;-64
2021/12/23 01:13:27;;;;;;;27.38;15.68;;;;;;;0.72;67.01;101415.09;3574194;40;20317;-64
2021/12/23 01:16:14;;;;;;;24.35;16.35;;;;;;;0.72;67.43;101415.94;3574942;40;20114;-63
2021/12/23 01:18:44;;;;;;;25.67;16.02;;;;;;;0.67;66.86;101400.16;3574699;40;20061;-64
2021/12/23 01:21:16;;;;;;;23.55;16.00;;;;;;;0.72;67.30;101409.78;3574442;40;20298;-64
2021/12/23 01:23:46;;;;;;;26.52;15.77;;;;;;;0.74;68.17;101403.59;3574012;40;20378;-64
2021/12/23 01:26:18;;;;;;;24.60;16.60;;;;;;;0.78;67.33;101399.13;3573132;40;20045;-64
2021/12/23 01:28:47;;;;;;;24.50;16.23;;;;;;;0.78;66.98;101402.66;3571342;40;20061;-64
2021/12/23 01:31:13;;;;;;;26.20;16.45;;;;;;;0.80;67.86;101400.00;3573498;40;20048;-64
2021/12/23 01:33:39;;;;;;;24.00;16.30;;;;;;;0.78;68.13;101391.19;3567950;40;20429;-64
2021/12/23 01:36:05;;;;;;;28.15;18.73;;;;;;;0.77;66.55;101389.44;3573620;40;20088;-64
2021/12/23 01:38:31;;;;;;;25.33;16.77;;;;;;;0.74;68.05;101392.13;3573663;40;20059;-64
2021/12/23 01:40:56;;;;;;;22.77;15.50;;;;;;;0.69;67.73;101385.09;3573507;40;20054;-64
2021/12/23 01:43:22;;;;;;;25.13;16.35;;;;;;;0.72;66.85;101378.91;3570998;40;20052;-64
2021/12/23 01:45:50;;;;;;;24.90;15.98;;;;;;;0.63;67.32;101358.72;3574131;40;20147;-64
2021/12/23 01:48:19;;;;;;;26.80;16.50;;;;;;;0.68;66.78;101375.44;3573486;40;20315;-64
2021/12/23 01:50:46;;;;;;;25.77;16.45;;;;;;;0.69;67.49;101374.53;3571916;40;20075;-63
2021/12/23 01:53:15;;;;;;;26.63;17.10;;;;;;;0.52;67.49;101336.84;3573696;40;20130;-64
2021/12/23 01:55:42;;;;;;;28.65;16.92;;;;;;;0.28;67.24;101294.81;3573322;40;20076;-63
2021/12/23 01:58:11;;;;;;;24.08;17.23;;;;;;;0.69;67.63;101352.50;3572198;40;20065;-64
2021/12/23 02:00:44;;;;;;;24.30;16.35;;;;;;;0.64;68.24;101346.41;3573310;40;20079;-64
2021/12/23 02:03:11;;;;;;;25.23;16.83;;;;;;;0.51;67.20;101332.44;3573656;40;20053;-63
2021/12/23 02:05:37;;;;;;;25.98;17.17;;;;;;;0.67;66.93;101355.16;3572407;40;20057;-63
2021/12/23 02:08:04;;;;;;;23.10;16.67;;;;;;;0.56;67.85;101332.38;3607360;22;20076;-60
2021/12/23 02:10:30;;;;;;;27.88;17.02;;;;;;;0.58;67.67;101326.19;3583221;39;20078;-61
2021/12/23 02:12:57;;;;;;;25.23;17.23;;;;;;;0.55;67.55;101328.00;3590102;40;20083;-63
2021/12/23 02:15:24;;;;;;;27.70;17.35;;;;;;;0.57;67.15;101335.03;3584728;40;20087;-66
2021/12/23 02:17:50;;;;;;;22.42;15.93;;;;;;;0.56;67.95;101335.03;3586641;40;20060;-64
2021/12/23 02:20:35;;;;;;;24.52;16.63;;;;;;;0.42;68.49;101317.56;3575135;40;20068;-62
2021/12/23 02:23:03;;;;;;;24.08;17.60;;;;;;;0.44;67.92;101321.06;3577089;40;20102;-62
2021/12/23 02:25:29;;;;;;;26.52;16.67;;;;;;;0.49;67.37;101317.50;3580269;40;20052;-63
2021/12/23 02:27:57;;;;;;;25.00;16.48;;;;;;;0.51;67.84;101331.56;3576698;40;20068;-62
2021/12/23 02:30:28;;;;;;;25.02;16.80;;;;;;;0.53;68.72;101329.78;3573962;40;20126;-63
2021/12/23 02:32:55;;;;;;;26.20;16.98;;;;;;;0.53;68.62;101343.00;3576446;40;20123;-62
2021/12/23 02:35:24;;;;;;;24.13;17.70;;;;;;;0.52;68.86;101336.84;3574348;40;20056;-62
2021/12/23 02:37:51;;;;;;;23.63;17.15;;;;;;;0.48;69.16;101335.13;3574185;40;20056;-62
2021/12/23 02:40:37;;;;;;;29.95;18.02;;;;;;;0.47;68.19;101346.59;3581973;40;20064;-62
2021/12/23 02:43:24;;;;;;;23.77;16.67;;;;;;;0.50;68.60;101345.69;3573738;40;20414;-61
2021/12/23 02:45:55;;;;;;;25.80;16.60;;;;;;;0.44;68.58;101341.34;3571046;40;20060;-63
2021/12/23 02:48:30;;;;;;;23.73;16.25;;;;;;;0.40;67.90;101337.84;3573806;40;20301;-62
2021/12/23 02:50:56;;;;;;;26.50;16.33;;;;;;;0.35;67.93;101320.28;3573606;40;20048;-63
2021/12/23 02:53:23;;;;;;;25.52;16.85;;;;;;;0.40;68.54;101331.69;3575061;40;20463;-63
2021/12/23 02:55:49;;;;;;;25.27;16.42;;;;;;;0.38;69.16;101321.16;3579311;40;20315;-63
2021/12/23 02:58:16;;;;;;;27.17;17.27;;;;;;;0.35;68.67;101305.31;3574020;40;20061;-62
2021/12/23 03:00:45;;;;;;;26.95;17.67;;;;;;;0.31;69.33;101300.06;3579684;40;20083;-63
2021/12/23 03:03:11;;;;;;;25.00;16.73;;;;;;;0.21;69.02;101281.66;3574404;40;20122;-64
2021/12/23 03:05:36;;;;;;;26.63;17.02;;;;;;;0.20;68.47;101290.50;3581634;40;20304;-63
2021/12/23 03:08:03;;;;;;;26.13;17.88;;;;;;;0.29;68.87;101299.22;3577093;40;20044;-62
2021/12/23 03:10:29;;;;;;;29.33;18.08;;;;;;;0.19;68.99;101282.56;3573665;40;20049;-62
2021/12/23 03:12:55;;;;;;;27.77;18.23;;;;;;;0.27;68.98;101295.72;3574331;40;20052;-63
2021/12/23 03:15:21;;;;;;;23.13;16.60;;;;;;;0.26;68.59;101300.13;3575123;40;20056;-63
2021/12/23 03:17:46;;;;;;;26.23;16.83;;;;;;;0.23;68.29;101295.75;3574257;40;20063;-63
2021/12/23 03:20:12;;;;;;;28.27;17.58;;;;;;;0.19;68.78;101288.75;3573662;40;20357;-62
2021/12/23 03:22:38;;;;;;;28.98;17.73;;;;;;;0.17;70.07;101284.38;3574031;40;20048;-62
2021/12/23 03:25:05;;;;;;;28.45;18.95;;;;;;;-0.05;70.30;101241.47;3575724;40;20052;-62
2021/12/23 03:27:30;;;;;;;26.10;18.17;;;;;;;0.14;69.55;101277.34;3575434;40;20086;-62
2021/12/23 03:29:56;;;;;;;27.23;17.75;;;;;;;0.07;70.45;101261.59;3575553;40;20060;-63
2021/12/23 03:32:24;;;;;;;26.55;17.63;;;;;;;0.07;70.26;101251.03;3572920;40;20056;-62
2021/12/23 03:34:50;;;;;;;30.08;18.90;;;;;;;0.11;69.81;101253.59;3578707;40;20424;-62
2021/12/23 03:37:16;;;;;;;28.00;18.20;;;;;;;0.06;69.49;101239.56;3572544;40;20067;-62
2021/12/23 03:39:42;;;;;;;29.08;18.23;;;;;;;0.02;69.34;101235.22;3577747;40;20067;-63
2021/12/23 03:42:08;;;;;;;27.02;19.10;;;;;;;0.06;70.19;101250.13;3573058;40;20126;-62
2021/12/23 03:44:34;;;;;;;30.65;19.35;;;;;;;0.09;70.51;101239.53;3576112;40;20064;-62
2021/12/23 03:46:59;;;;;;;34.75;20.52;;;;;;;-0.08;70.21;101197.44;3576344;40;20498;-65
2021/12/23 03:49:25;;;;;;;30.25;19.35;;;;;;;0.14;69.92;101216.56;3574934;40;20057;-62
2021/12/23 03:51:51;;;;;;;28.00;19.15;;;;;;;0.08;70.58;101206.06;3575384;40;20153;-63
2021/12/23 03:54:16;;;;;;;27.92;18.80;;;;;;;0.09;71.07;101202.50;3580213;40;20143;-63
2021/12/23 03:56:44;;;;;;;28.83;19.67;;;;;;;0.17;70.35;101199.78;3574804;40;20052;-62
2021/12/23 03:59:09;;;;;;;29.83;19.73;;;;;;;0.17;70.13;101184.81;3574567;40;20053;-62
2021/12/23 04:01:35;;;;;;;31.02;20.42;;;;;;;0.28;70.08;101191.69;3575192;40;20082;-62
2021/12/23 04:04:01;;;;;;;29.90;20.70;;;;;;;0.22;69.33;101179.44;3575983;40;20579;-63
2021/12/23 04:06:27;;;;;;;31.73;20.52;;;;;;;-0.04;69.60;101142.78;3575403;40;20057;-62
2021/12/23 04:08:54;;;;;;;36.25;21.27;;;;;;;-0.19;70.37;101119.22;3577229;40;20063;-63
2021/12/23 04:11:21;;;;;;;28.45;19.50;;;;;;;0.30;69.20;101185.50;3574726;40;20138;-62
2021/12/23 04:13:47;;;;;;;30.85;19.95;;;;;;;0.22;68.89;101171.50;3576480;40;20083;-62
2021/12/23 04:16:13;;;;;;;32.72;21.42;;;;;;;0.37;69.12;101175.72;3574591;40;20084;-63
2021/12/23 04:18:38;;;;;;;33.30;21.65;;;;;;;0.45;69.16;101179.13;3572698;40;20056;-63
2021/12/23 04:21:04;;;;;;;31.20;20.27;;;;;;;0.52;69.06;101166.69;3575918;40;20087;-62
2021/12/23 04:23:32;;;;;;;33.88;22.20;;;;;;;0.41;70.12;101156.25;3579753;40;20048;-63
2021/12/23 04:25:58;;;;;;;31.15;21.10;;;;;;;0.47;70.12;101167.63;3575465;40;20307;-62
2021/12/23 04:28:26;;;;;;;31.05;21.40;;;;;;;0.32;69.08;101151.09;3575094;40;20327;-62
2021/12/23 04:30:53;;;;;;;34.55;21.98;;;;;;;0.35;68.75;101156.34;3572856;40;20061;-62
2021/12/23 04:33:19;;;;;;;32.28;20.40;;;;;;;0.42;69.45;101179.19;3574870;40;20464;-62
2021/12/23 04:35:45;;;;;;;32.60;20.63;;;;;;;0.47;68.82;101182.63;3574950;40;20048;-62
2021/12/23 04:38:11;;;;;;;32.63;22.20;;;;;;;0.40;69.43;101173.91;3575644;40;20076;-62
2021/12/23 04:40:37;;;;;;;38.00;24.38;;;;;;;0.41;69.81;101150.97;3576528;40;20055;-62
2021/12/23 04:43:05;;;;;;;35.47;22.75;;;;;;;0.42;69.05;101160.66;3578532;40;20057;-62
2021/12/23 04:45:32;;;;;;;34.13;22.17;;;;;;;0.32;70.48;101146.72;3576917;40;20051;-65
2021/12/23 04:47:58;;;;;;;30.30;22.38;;;;;;;0.36;69.10;101139.59;3574122;40;20060;-65
2021/12/23 04:50:24;;;;;;;35.20;22.85;;;;;;;0.37;69.50;101136.06;3575267;40;20399;-64
2021/12/23 04:52:54;;;;;;;33.47;22.73;;;;;;;0.08;69.66;101083.63;3577734;40;20373;-65
2021/12/23 04:55:19;;;;;;;35.80;23.10;;;;;;;0.16;69.63;101106.41;3574381;40;20060;-67
2021/12/23 04:57:46;;;;;;;32.70;21.83;;;;;;;0.38;69.53;101141.34;3572377;40;20425;-64
2021/12/23 05:00:20;;;;;;;38.63;23.85;;;;;;;0.34;69.61;101130.81;3575003;40;20063;-66
2021/12/23 05:02:47;;;;;;;33.22;23.23;;;;;;;0.28;69.82;101113.25;3580181;40;20083;-66
2021/12/23 05:05:14;;;;;;;36.80;25.33;;;;;;;0.26;69.79;101108.91;3581476;40;20111;-65
2021/12/23 05:07:40;;;;;;;36.42;23.73;;;;;;;0.29;70.00;101103.59;3572120;40;20276;-65
2021/12/23 05:10:09;;;;;;;38.00;24.25;;;;;;;0.38;70.98;101120.19;3575485;40;20060;-64
2021/12/23 05:12:42;;;;;;;38.55;25.67;;;;;;;0.41;69.58;101119.22;3577269;40;20080;-64
2021/12/23 05:15:10;;;;;;;38.15;24.75;;;;;;;0.47;70.03;101108.56;3577959;40;20580;-64
2021/12/23 05:17:36;;;;;;;36.95;24.95;;;;;;;0.42;69.74;101099.84;3576502;40;20055;-65
2021/12/23 05:20:07;;;;;;;35.97;23.75;;;;;;;0.43;69.76;101106.88;3575632;40;20056;-64
2021/12/23 05:22:33;;;;;;;38.50;25.33;;;;;;;0.42;69.51;101095.44;3576007;40;20053;-65
2021/12/23 05:24:59;;;;;;;39.67;25.27;;;;;;;0.22;69.56;101053.44;3574522;40;20354;-64
2021/12/23 05:27:25;;;;;;;38.22;25.83;;;;;;;0.60;70.40;101112.78;3574034;40;20059;-64
2021/12/23 05:29:50;;;;;;;39.58;25.40;;;;;;;0.56;69.27;101105.78;3578118;40;20051;-64
2021/12/23 05:32:16;;;;;;;40.15;26.42;;;;;;;0.57;69.42;101099.59;3575783;40;20310;-65
2021/12/23 05:34:42;;;;;;;40.45;25.83;;;;;;;0.26;69.27;101050.75;3572431;40;20065;-64
2021/12/23 05:37:08;;;;;;;37.72;24.20;;;;;;;0.57;69.73;101094.31;3577635;40;20559;-66
2021/12/23 05:39:33;;;;;;;41.45;25.35;;;;;;;0.65;69.13;101108.28;3577072;40;20060;-64
2021/12/23 05:41:59;;;;;;;37.70;24.50;;;;;;;0.65;69.12;101102.97;3573092;40;20080;-64
2021/12/23 05:44:24;;;;;;;38.20;25.05;;;;;;;0.66;70.01;101102.06;3574362;40;20083;-64
2021/12/23 05:46:50;;;;;;;37.17;23.25;;;;;;;0.58;68.94;101085.47;3577837;40;20048;-64
2021/12/23 05:49:16;;;;;;;34.88;23.58;;;;;;;0.55;69.33;101074.06;3577629;40;20461;-64
2021/12/23 05:51:41;;;;;;;39.40;24.38;;;;;;;0.63;70.14;101077.44;3580335;40;20048;-64
2021/12/23 05:54:07;;;;;;;36.65;23.05;;;;;;;0.68;68.87;101075.59;3574525;40;20051;-64
2021/12/23 05:56:33;;;;;;;34.47;23.63;;;;;;;0.63;70.14;101073.03;3576179;40;20052;-65
2021/12/23 05:58:59;;;;;;;35.28;23.45;;;;;;;0.67;69.36;101082.69;3581124;40;20096;-65
2021/12/23 06:01:24;;;;;;;35.47;24.08;;;;;;;0.61;69.05;101085.44;3578726;40;20433;-64
2021/12/23 06:03:50;;;;;;;35.22;23.38;;;;;;;0.63;70.03;101080.97;3574975;40;20313;-64
2021/12/23 06:06:16;;;;;;;37.08;24.27;;;;;;;0.68;70.09;101079.13;3578943;40;20048;-64
2021/12/23 06:08:42;;;;;;;36.53;24.52;;;;;;;0.69;69.65;101094.09;3580435;40;20056;-64
2021/12/23 06:11:08;;;;;;;39.90;24.55;;;;;;;0.69;69.36;101096.72;3573424;40;20104;-63
2021/12/23 06:13:35;;;;;;;40.35;24.58;;;;;;;0.67;69.96;101101.19;3579320;40;20432;-65
2021/12/23 06:16:00;;;;;;;36.95;23.85;;;;;;;0.62;70.17;101083.66;3578482;40;20088;-64
2021/12/23 06:18:26;;;;;;;36.92;24.25;;;;;;;0.63;69.84;101077.44;3577206;40;20398;-64
2021/12/23 06:20:52;;;;;;;37.63;24.80;;;;;;;0.59;70.45;101066.06;3580536;40;20078;-66
2021/12/23 06:23:18;;;;;;;39.70;24.83;;;;;;;0.65;68.83;101073.88;3572959;40;20060;-65
2021/12/23 06:25:44;;;;;;;36.97;23.55;;;;;;;0.52;69.32;101042.38;3576964;40;20057;-64
2021/12/23 06:28:09;;;;;;;41.08;25.40;;;;;;;0.64;69.03;101064.22;3573935;40;20060;-64
2021/12/23 06:30:35;;;;;;;39.25;24.75;;;;;;;0.61;69.28;101058.97;3573927;40;20054;-64
2021/12/23 06:33:00;;;;;;;37.33;24.33;;;;;;;0.63;69.61;101051.88;3574111;40;20051;-64
2021/12/23 06:35:30;;;;;;;42.28;24.55;;;;;;;0.62;70.13;101043.97;3573864;40;20059;-64
2021/12/23 06:38:00;;;;;;;40.35;24.17;;;;;;;0.73;69.79;101051.72;3574772;40;20510;-64
2021/12/23 06:40:26;;;;;;;39.03;25.30;;;;;;;0.71;69.72;101057.03;3573481;40;20111;-65
2021/12/23 06:42:52;;;;;;;36.67;24.05;;;;;;;0.73;69.28;101055.25;3572997;40;20328;-64
2021/12/23 06:45:17;;;;;;;40.63;25.77;;;;;;;0.63;69.27;101016.59;3574333;40;20093;-64
2021/12/23 06:47:45;;;;;;;42.42;25.58;;;;;;;0.50;69.93;100992.16;3574104;40;20057;-64
2021/12/23 06:50:13;;;;;;;43.67;25.52;;;;;;;0.61;70.69;101011.34;3573969;40;20056;-65
2021/12/23 06:52:39;;;;;;;38.75;23.98;;;;;;;0.77;69.57;101037.53;3574696;40;20053;-65
2021/12/23 06:55:08;;;;;;;39.80;25.17;;;;;;;0.78;70.35;101034.84;3581789;40;20055;-64
2021/12/23 06:57:34;;;;;;;38.42;24.35;;;;;;;0.54;70.08;100993.88;3574023;40;20092;-65
2021/12/23 07:00:00;;;;;;;39.42;24.50;;;;;;;0.81;70.37;101034.78;3571014;40;20098;-64
2021/12/23 07:02:26;;;;;;;37.35;24.05;;;;;;;0.83;70.57;101032.13;3574154;40;20163;-66
2021/12/23 07:04:52;;;;;;;40.40;24.92;;;;;;;0.86;69.85;101037.38;3574990;40;20589;-65
2021/12/23 07:07:29;;;;;;;38.20;24.20;;;;;;;0.76;70.56;101011.97;3574383;40;20049;-64
2021/12/23 07:09:55;;;;;;;38.53;22.70;;;;;;;0.65;70.07;100998.94;3576690;40;20144;-64
2021/12/23 07:12:23;;;;;;;38.40;24.40;;;;;;;0.87;69.76;101029.41;3581958;40;20131;-66
2021/12/23 07:14:49;;;;;;;38.90;24.63;;;;;;;0.94;70.03;101043.38;3575178;40;20071;-64
2021/12/23 07:17:15;;;;;;;41.78;23.95;;;;;;;0.90;70.34;101024.03;3573767;40;20478;-64
2021/12/23 07:19:40;;;;;;;37.92;24.23;;;;;;;0.92;70.13;101021.38;3573977;40;20052;-64
2021/12/23 07:22:06;;;;;;;37.20;23.48;;;;;;;0.50;69.19;100948.97;3574656;40;20376;-65
2021/12/23 07:24:34;;;;;;;42.97;24.15;;;;;;;0.98;69.54;101025.66;3580515;40;20057;-64
2021/12/23 07:27:00;;;;;;;37.58;23.95;;;;;;;0.99;70.52;101028.31;3572642;40;20052;-64
2021/12/23 07:29:25;;;;;;;40.50;24.45;;;;;;;1.00;69.53;101030.03;3576831;40;20344;-64
2021/12/23 07:31:51;;;;;;;39.35;24.10;;;;;;;1.04;69.02;101037.00;3575718;40;20053;-65
2021/12/23 07:34:16;;;;;;;38.72;24.45;;;;;;;1.03;70.04;101021.16;3574226;40;20059;-64
2021/12/23 07:36:43;;;;;;;40.22;23.85;;;;;;;1.06;69.95;101035.22;3570470;40;20056;-64
2021/12/23 07:39:09;;;;;;;40.63;24.23;;;;;;;0.99;69.48;101022.13;3573826;40;20061;-64
2021/12/23 07:41:35;;;;;;;39.25;24.58;;;;;;;1.13;68.74;101044.78;3571778;40;20150;-64
2021/12/23 07:44:07;;;;;;;40.67;25.38;;;;;;;0.97;69.56;101014.22;3575451;40;20052;-65
2021/12/23 07:46:37;;;;;;;40.42;24.23;;;;;;;1.10;69.71;101030.72;3572965;40;20060;-64
2021/12/23 07:49:05;;;;;;;39.88;24.13;;;;;;;0.85;69.43;100993.28;3573624;40;20576;-65
2021/12/23 07:51:31;;;;;;;38.72;23.20;;;;;;;0.69;69.96;100955.66;3573884;40;20059;-65
2021/12/23 07:53:57;;;;;;;39.28;24.70;;;;;;;1.22;69.68;101043.72;3574003;40;20056;-64
2021/12/23 07:56:25;;;;;;;43.42;24.58;;;;;;;1.19;69.84;101032.34;3576610;40;20096;-66
2021/12/23 07:58:52;;;;;;;41.20;24.75;;;;;;;1.26;69.38;101036.59;3576362;40;20060;-65
2021/12/23 08:01:18;;;;;;;40.67;24.60;;;;;;;1.26;69.87;101026.00;3577183;40;20060;-65
2021/12/23 08:03:44;;;;;;;40.30;25.27;;;;;;;1.26;69.05;101018.06;3573270;40;20061;-65
2021/12/23 08:06:10;;;;;;;37.08;23.52;;;;;;;1.28;69.57;101025.06;3572883;40;20100;-65
2021/12/23 08:11:07;;;;;;;39.25;23.52;;;;;;;1.32;69.21;101015.28;3550215;40;20509;-64
2021/12/23 08:13:34;;;;;;;39.15;24.35;;;;;;;1.36;70.07;101017.84;3552624;40;20049;-64
2021/12/23 08:16:01;;;;;;;39.00;25.08;;;;;;;1.31;69.31;101024.16;3552579;40;20127;-64
2021/12/23 08:18:30;;;;;;;39.05;23.83;;;;;;;1.28;70.28;101008.31;3552835;40;20124;-65
2021/12/23 08:20:58;;;;;;;40.53;24.50;;;;;;;1.38;70.04;101021.31;3542733;40;20098;-64
2021/12/23 08:23:25;;;;;;;44.05;25.73;;;;;;;1.30;68.92;101001.19;3546872;40;20057;-65
2021/12/23 08:25:51;;;;;;;39.50;24.58;;;;;;;1.42;69.44;101019.47;3542876;40;20282;-65
2021/12/23 08:28:17;;;;;;;42.65;25.42;;;;;;;1.45;69.88;101011.47;3542576;40;20089;-65
2021/12/23 08:30:42;;;;;;;37.90;24.20;;;;;;;1.47;69.85;101007.03;3548524;40;20101;-65
2021/12/23 08:33:08;;;;;;;38.90;24.98;;;;;;;1.50;69.81;101004.31;3538604;40;20054;-65
2021/12/23 08:35:35;;;;;;;36.95;23.63;;;;;;;1.53;69.62;100995.44;3542382;40;20128;-65
2021/12/23 08:38:03;;;;;;;39.95;24.77;;;;;;;1.45;69.08;100979.69;3541614;40;20056;-65
2021/12/23 08:40:29;;;;;;;41.60;24.92;;;;;;;1.56;70.12;100996.22;3541388;40;20423;-65
2021/12/23 08:42:56;;;;;;;40.25;24.30;;;;;;;1.55;68.71;100986.50;3541971;40;20137;-66
2021/12/23 08:45:25;;;;;;;41.13;25.42;;;;;;;1.59;69.68;100985.56;3541670;40;20332;-65
2021/12/23 08:47:54;;;;;;;37.08;23.40;;;;;;;1.62;68.75;100979.34;3546332;40;20129;-65
2021/12/23 08:50:24;;;;;;;41.92;24.85;;;;;;;1.37;69.60;100926.03;3538168;40;20058;-66
2021/12/23 08:52:51;;;;;;;39.97;24.73;;;;;;;1.70;69.18;100973.84;3541604;40;20056;-64
2021/12/23 08:55:18;;;;;;;37.53;23.05;;;;;;;1.74;69.05;100975.50;3540678;40;20403;-66
2021/12/23 08:57:45;;;;;;;39.33;24.70;;;;;;;1.76;69.45;100973.69;3541863;40;20093;-64
2021/12/23 09:00:17;;;;;;;39.42;24.15;;;;;;;1.76;69.35;100968.41;3543051;40;20058;-64
2021/12/23 09:02:44;;;;;;;39.10;24.17;;;;;;;1.69;68.23;100949.13;3543925;40;20057;-64
2021/12/23 09:05:10;;;;;;;42.33;25.55;;;;;;;1.79;68.56;100973.63;3541559;40;20158;-64
2021/12/23 09:07:36;;;;;;;39.40;24.58;;;;;;;1.83;68.02;100975.28;3542430;40;20050;-65
2021/12/23 09:10:05;;;;;;;40.78;24.25;;;;;;;1.89;68.65;100961.03;3540768;40;20479;-66
2021/12/23 09:12:31;;;;;;;40.20;23.70;;;;;;;1.94;69.17;100957.38;3539115;40;20090;-64
2021/12/23 09:14:57;;;;;;;43.40;24.42;;;;;;;2.00;68.80;100969.63;3539413;40;20051;-65
2021/12/23 09:17:23;;;;;;;42.42;24.20;;;;;;;2.08;68.50;100960.53;3539053;40;20328;-65
2021/12/23 09:19:48;;;;;;;38.65;25.25;;;;;;;2.15;69.40;100963.03;3541435;40;20073;-65
2021/12/23 09:22:14;;;;;;;40.20;23.55;;;;;;;1.91;68.61;100904.44;3539268;40;20046;-64
2021/12/23 09:24:45;;;;;;;40.15;24.13;;;;;;;2.23;67.34;100954.00;3539746;40;20074;-65
2021/12/23 09:27:27;;;;;;;38.55;24.02;;;;;;;2.25;67.57;100956.59;3538955;40;20054;-65
2021/12/23 09:35:06;;;;;;;39.85;24.40;;;;;;;2.33;68.78;100957.28;3540521;40;20487;-65
2021/12/23 09:37:32;;;;;;;40.65;24.23;;;;;;;2.31;68.06;100952.00;3541157;40;20061;-65
2021/12/23 09:40:01;;;;;;;38.35;24.00;;;;;;;2.35;68.00;100949.25;3540182;40;20062;-65
2021/12/23 09:42:32;;;;;;;39.40;23.65;;;;;;;2.34;67.90;100956.34;3536977;40;20057;-64
2021/12/23 09:45:06;;;;;;;41.10;24.60;;;;;;;2.35;68.43;100946.63;3541284;40;20392;-64
2021/12/23 09:47:35;;;;;;;42.22;24.20;;;;;;;2.41;68.47;100941.16;3542415;40;20061;-64
2021/12/23 09:50:09;;;;;;;41.60;24.23;;;;;;;2.45;68.53;100945.50;3541860;40;20058;-64
2021/12/23 09:52:41;;;;;;;40.78;24.10;;;;;;;2.45;67.59;100943.69;3541001;40;20085;-65
2021/12/23 09:55:10;;;;;;;41.78;24.20;;;;;;;2.47;68.07;100933.03;3537846;40;20113;-65
2021/12/23 09:57:36;;;;;;;45.05;24.33;;;;;;;2.43;68.82;100934.03;3541576;40;20054;-65
2021/12/23 10:00:06;;;;;;;39.33;24.65;;;;;;;2.52;67.79;100933.78;3540620;40;20393;-64
2021/12/23 10:02:31;;;;;;;42.33;23.95;;;;;;;2.53;68.74;100925.78;3542192;40;20738;-65
2021/12/23 10:04:57;;;;;;;38.95;24.95;;;;;;;2.56;68.55;100923.03;3541445;40;20068;-65
2021/12/23 10:07:23;;;;;;;41.25;25.13;;;;;;;2.55;68.72;100912.47;3540495;40;20065;-65
2021/12/23 10:10:02;;;;;;;40.25;24.20;;;;;;;2.62;68.65;100929.09;3546123;40;20061;-64
2021/12/23 10:32:21;;;;;;;37.15;22.73;;;;;;;2.83;69.47;100886.03;3548110;40;20133;-64
2021/12/23 10:37:32;;;;;;;40.08;23.65;;;;;;;2.77;69.09;100839.31;3543820;40;20068;-64
2021/12/23 10:40:04;;;;;;;38.88;23.08;;;;;;;2.92;69.14;100856.56;3549138;40;20054;-63
2021/12/23 10:42:31;;;;;;;39.47;23.08;;;;;;;2.91;69.24;100827.41;3550218;40;20056;-64
2021/12/23 10:45:03;;;;;;;39.50;23.48;;;;;;;2.91;68.61;100814.13;3550449;40;20085;-64
2021/12/23 10:50:29;;;;;;;40.10;23.38;;;;;;;3.14;68.84;100827.56;3550340;40;20069;-64
2021/12/23 10:53:09;;;;;;;36.83;22.45;;;;;;;3.24;68.13;100818.41;3549089;40;20077;-65
2021/12/23 10:58:22;;;;;;;39.15;24.33;;;;;;;3.39;68.01;100818.81;3549655;40;20119;-64
2021/12/23 11:00:55;;;;;;;39.00;22.63;;;;;;;3.49;68.24;100818.47;3550706;40;20042;-64
2021/12/23 11:03:28;;;;;;;39.85;24.08;;;;;;;3.54;68.79;100814.78;3550544;40;20061;-64
2021/12/23 11:06:26;;;;;;;39.65;23.67;;;;;;;3.64;68.13;100811.75;3550114;40;20049;-64
2021/12/23 11:37:02;;;;;;;38.22;22.30;;;;;;;4.64;66.17;100744.34;3553129;40;20116;-65
2021/12/23 11:39:45;;;;;;;35.15;21.35;;;;;;;4.72;65.58;100744.91;3550624;40;20133;-64
2021/12/23 11:42:26;;;;;;;37.15;21.73;;;;;;;4.76;65.91;100746.53;3549646;40;20053;-65
2021/12/23 11:44:52;;;;;;;35.30;22.85;;;;;;;4.79;65.75;100735.75;3550330;40;20285;-66
2021/12/23 11:47:18;;;;;;;37.13;21.75;;;;;;;4.86;65.47;100728.41;3552603;40;20053;-63
2021/12/23 11:49:46;;;;;;;35.22;21.30;;;;;;;4.98;65.98;100735.00;3550813;40;20363;-64
2021/12/23 11:52:14;;;;;;;36.97;22.73;;;;;;;5.10;65.09;100729.19;3550420;40;20061;-64
2021/12/23 11:54:45;;;;;;;35.15;21.83;;;;;;;5.04;64.92;100697.47;3549697;40;20058;-64
2021/12/23 11:57:23;;;;;;;34.63;22.10;;;;;;;5.26;64.63;100726.75;3545381;40;20066;-64
2021/12/23 12:00:09;;;;;;;36.20;21.60;;;;;;;5.39;64.57;100716.44;3547867;40;20136;-64
2021/12/23 12:02:34;;;;;;;35.85;21.85;;;;;;;5.29;64.63;100668.88;3549990;40;20053;-64
2021/12/23 12:05:12;;;;;;;38.58;22.23;;;;;;;5.60;64.38;100702.22;3550783;40;20166;-65
2021/12/23 12:07:41;;;;;;;33.95;22.55;;;;;;;5.62;63.96;100699.50;3552838;40;20128;-65
2021/12/23 12:10:18;;;;;;;31.23;20.50;;;;;;;5.62;64.33;100707.50;3551743;40;20053;-64
2021/12/23 12:13:03;;;;;;;30.95;19.70;;;;;;;5.59;64.00;100706.69;3550201;40;20061;-65
2021/12/23 12:15:37;;;;;;;29.25;19.25;;;;;;;5.62;64.13;100705.69;3550915;40;20061;-65
2021/12/23 12:18:10;;;;;;;33.45;20.55;;;;;;;5.58;64.46;100694.28;3547665;40;20053;-65
2021/12/23 12:20:44;;;;;;;31.40;19.98;;;;;;;5.59;64.46;100684.50;3551867;40;20054;-65
2021/12/23 12:23:22;;;;;;;31.85;20.00;;;;;;;5.54;64.33;100673.16;3548588;40;20056;-65
2021/12/23 12:25:53;;;;;;;33.85;19.75;;;;;;;5.57;64.97;100670.34;3548704;40;20054;-65
2021/12/23 12:28:36;;;;;;;33.22;20.33;;;;;;;5.62;65.09;100671.03;3549190;40;20144;-65
2021/12/23 12:31:12;;;;;;;33.08;19.42;;;;;;;5.66;64.85;100661.94;3550945;40;20054;-65